Geraldton Airport
YGEL : now visible

Airfield :











YOU CAN JOIN US ON...

 
LOGIN :

Register | Disclaimer

   EN    FR    IT 

 









Legend :    VFR   Marginal VFR   IFR   Intensive IFR   Very Intensive IFR
Visi :
Ceiling :
>= 8 km
>= 3000ft
5 to 8 km
1000 to 3000 ft
1500m to 5 km
500 to 1000 ft
800 to 1500m
200 to 500 ft
< 800m
< 200 ft
Symbols :   Thunderstorms  Fog  Heavy snow  Heavy precipitations  Wind > 20 kt






- Airport Elevation : 121 ft
- IATA code : GET


YGEL - Geraldton

CURRENT METAR :
  • 252100Z AUTO 11004KT 9999 // BKN034 BKN039 OVC048 15/11 Q1019

EXPIRED METARs :
  • 252030Z AUTO 18007KT 9999 // SCT043 OVC051 15/11 Q1018
  • 252000Z AUTO 20008KT 9999 // SCT046 BKN053 15/11 Q1018
  • 251930Z AUTO 19010KT 9999 // BKN053 16/11 Q1018 RF00.2/001.2
  • 251900Z AUTO 15003KT 9999 // SCT031 SCT039 BKN048 15/12 Q1019
  • 251830Z AUTO 11001KT 9999 // SCT031 SCT039 BKN048 15/12 Q1019

TAF TAF YGEL
Valid from the 25 at 18:00 until the 26 at 12:00 UTC


251605Z 2518/2612 18014KT 9999 SCT045
FM252000 04005KT 9999 BKN040
FM260800 11008KT 9999 BKN035
YMMM FIR / Oceania



MET'MAP, your aeronautical weather chart ! - Copyright ORBIFLY December 2007 - Disclaimer

ORBIFLY MET'MAP TEAM :

Programming & Development : Alexandra Zaïnal
Concept & original design : Baudouin d'Aumeries
Assistance for programming : Marc-Olivier Méhu
Technical & hardware support : Manuel Goepfert

Contact : metmap@orbifly.com




SOURCES & CREDITS :

   NOAA       Earth
Advisory